sensor_id;sensor_type;location;lat;lon;timestamp;P1;durP1;ratioP1;P2;durP2;ratioP2
37379;SDS011;23252;-33.992;18.480;2023-01-16T00:02:15;15.98;;;3.40;;
37379;SDS011;23252;-33.992;18.480;2023-01-16T00:04:42;20.38;;;3.58;;
37379;SDS011;23252;-33.992;18.480;2023-01-16T00:07:11;20.40;;;3.60;;
37379;SDS011;23252;-33.992;18.480;2023-01-16T00:09:38;15.63;;;2.78;;
37379;SDS011;23252;-33.992;18.480;2023-01-16T00:12:06;13.25;;;2.70;;
37379;SDS011;23252;-33.992;18.480;2023-01-16T00:14:32;17.23;;;3.33;;
37379;SDS011;23252;-33.992;18.480;2023-01-16T00:16:59;18.00;;;2.55;;
37379;SDS011;23252;-33.992;18.480;2023-01-16T00:19:26;15.38;;;3.10;;
37379;SDS011;23252;-33.992;18.480;2023-01-16T00:21:52;17.17;;;3.22;;
37379;SDS011;23252;-33.992;18.480;2023-01-16T00:24:19;16.55;;;3.50;;
37379;SDS011;23252;-33.992;18.480;2023-01-16T00:26:45;17.90;;;4.05;;
37379;SDS011;23252;-33.992;18.480;2023-01-16T00:29:16;19.77;;;4.22;;
37379;SDS011;23252;-33.992;18.480;2023-01-16T00:31:43;22.23;;;4.85;;
37379;SDS011;23252;-33.992;18.480;2023-01-16T00:34:10;22.52;;;4.10;;
37379;SDS011;23252;-33.992;18.480;2023-01-16T00:36:39;27.38;;;5.07;;
37379;SDS011;23252;-33.992;18.480;2023-01-16T00:39:06;26.83;;;6.22;;
37379;SDS011;23252;-33.992;18.480;2023-01-16T00:41:33;22.80;;;5.25;;
37379;SDS011;23252;-33.992;18.480;2023-01-16T00:43:59;20.73;;;5.10;;
37379;SDS011;23252;-33.992;18.480;2023-01-16T00:46:26;23.13;;;5.82;;
37379;SDS011;23252;-33.992;18.480;2023-01-16T00:48:58;23.33;;;4.90;;
37379;SDS011;23252;-33.992;18.480;2023-01-16T00:51:24;20.10;;;4.50;;
37379;SDS011;23252;-33.992;18.480;2023-01-16T00:53:57;18.60;;;4.32;;
37379;SDS011;23252;-33.992;18.480;2023-01-16T00:56:27;21.98;;;3.80;;
37379;SDS011;23252;-33.992;18.480;2023-01-16T00:59:20;15.85;;;3.63;;
37379;SDS011;23252;-33.992;18.480;2023-01-16T01:01:49;21.58;;;4.80;;
37379;SDS011;23252;-33.992;18.480;2023-01-16T01:04:18;17.58;;;4.20;;
37379;SDS011;23252;-33.992;18.480;2023-01-16T01:06:59;22.95;;;3.83;;
37379;SDS011;23252;-33.992;18.480;2023-01-16T01:09:40;20.77;;;3.92;;
37379;SDS011;23252;-33.992;18.480;2023-01-16T01:12:11;21.35;;;3.88;;
37379;SDS011;23252;-33.992;18.480;2023-01-16T01:14:38;19.58;;;4.05;;
37379;SDS011;23252;-33.992;18.480;2023-01-16T01:17:05;16.90;;;3.42;;
37379;SDS011;23252;-33.992;18.480;2023-01-16T01:19:31;18.33;;;2.72;;
37379;SDS011;23252;-33.992;18.480;2023-01-16T01:21:58;10.70;;;3.08;;
37379;SDS011;23252;-33.992;18.480;2023-01-16T01:24:25;12.82;;;2.88;;
37379;SDS011;23252;-33.992;18.480;2023-01-16T01:26:54;18.55;;;3.20;;
37379;SDS011;23252;-33.992;18.480;2023-01-16T01:29:24;14.55;;;3.00;;
37379;SDS011;23252;-33.992;18.480;2023-01-16T01:31:50;16.10;;;2.90;;
37379;SDS011;23252;-33.992;18.480;2023-01-16T01:34:20;11.48;;;2.95;;
37379;SDS011;23252;-33.992;18.480;2023-01-16T01:36:48;13.10;;;2.60;;
37379;SDS011;23252;-33.992;18.480;2023-01-16T01:39:15;10.10;;;2.42;;
37379;SDS011;23252;-33.992;18.480;2023-01-16T01:41:46;16.15;;;2.88;;
37379;SDS011;23252;-33.992;18.480;2023-01-16T01:47:11;14.52;;;2.58;;
37379;SDS011;23252;-33.992;18.480;2023-01-16T01:49:39;13.80;;;2.60;;
37379;SDS011;23252;-33.992;18.480;2023-01-16T01:52:08;7.68;;;1.92;;
37379;SDS011;23252;-33.992;18.480;2023-01-16T01:54:36;16.92;;;2.90;;
37379;SDS011;23252;-33.992;18.480;2023-01-16T01:57:15;9.98;;;2.30;;
37379;SDS011;23252;-33.992;18.480;2023-01-16T01:59:57;19.23;;;3.50;;
37379;SDS011;23252;-33.992;18.480;2023-01-16T02:02:29;16.07;;;3.67;;
37379;SDS011;23252;-33.992;18.480;2023-01-16T02:05:02;14.70;;;3.05;;
37379;SDS011;23252;-33.992;18.480;2023-01-16T02:07:34;13.65;;;2.75;;
37379;SDS011;23252;-33.992;18.480;2023-01-16T02:13:02;13.15;;;2.83;;
37379;SDS011;23252;-33.992;18.480;2023-01-16T02:15:36;14.38;;;2.92;;
37379;SDS011;23252;-33.992;18.480;2023-01-16T02:18:26;13.85;;;2.92;;
37379;SDS011;23252;-33.992;18.480;2023-01-16T02:23:47;17.00;;;3.65;;
37379;SDS011;23252;-33.992;18.480;2023-01-16T02:29:30;12.75;;;2.58;;
37379;SDS011;23252;-33.992;18.480;2023-01-16T02:40:25;13.68;;;2.40;;
37379;SDS011;23252;-33.992;18.480;2023-01-16T02:45:54;11.70;;;2.83;;
37379;SDS011;23252;-33.992;18.480;2023-01-16T02:54:37;12.60;;;2.83;;
37379;SDS011;23252;-33.992;18.480;2023-01-16T02:57:38;16.77;;;2.30;;
37379;SDS011;23252;-33.992;18.480;2023-01-16T03:00:08;12.88;;;2.60;;
37379;SDS011;23252;-33.992;18.480;2023-01-16T03:02:36;11.25;;;2.38;;
37379;SDS011;23252;-33.992;18.480;2023-01-16T03:05:02;12.27;;;2.47;;
37379;SDS011;23252;-33.992;18.480;2023-01-16T03:11:00;9.82;;;2.15;;
37379;SDS011;23252;-33.992;18.480;2023-01-16T03:13:49;11.83;;;2.33;;
37379;SDS011;23252;-33.992;18.480;2023-01-16T03:33:52;9.55;;;2.47;;
37379;SDS011;23252;-33.992;18.480;2023-01-16T03:36:35;13.32;;;2.30;;
37379;SDS011;23252;-33.992;18.480;2023-01-16T03:42:02;14.48;;;2.28;;
37379;SDS011;23252;-33.992;18.480;2023-01-16T03:44:35;12.80;;;2.53;;
37379;SDS011;23252;-33.992;18.480;2023-01-16T03:47:10;15.50;;;3.13;;
37379;SDS011;23252;-33.992;18.480;2023-01-16T03:49:42;12.60;;;2.70;;
37379;SDS011;23252;-33.992;18.480;2023-01-16T03:52:16;17.13;;;2.78;;
37379;SDS011;23252;-33.992;18.480;2023-01-16T03:54:50;12.63;;;2.30;;
37379;SDS011;23252;-33.992;18.480;2023-01-16T03:57:25;14.02;;;2.45;;
37379;SDS011;23252;-33.992;18.480;2023-01-16T04:00:11;14.57;;;2.97;;
37379;SDS011;23252;-33.992;18.480;2023-01-16T04:02:44;13.25;;;2.80;;
37379;SDS011;23252;-33.992;18.480;2023-01-16T04:05:18;7.53;;;2.17;;
37379;SDS011;23252;-33.992;18.480;2023-01-16T04:07:56;13.05;;;2.65;;
37379;SDS011;23252;-33.992;18.480;2023-01-16T04:10:31;14.48;;;2.42;;
37379;SDS011;23252;-33.992;18.480;2023-01-16T04:13:03;11.15;;;2.55;;
37379;SDS011;23252;-33.992;18.480;2023-01-16T04:15:33;12.70;;;2.40;;
37379;SDS011;23252;-33.992;18.480;2023-01-16T04:18:01;11.93;;;2.17;;
37379;SDS011;23252;-33.992;18.480;2023-01-16T04:22:55;13.35;;;3.42;;
37379;SDS011;23252;-33.992;18.480;2023-01-16T04:28:19;13.68;;;2.78;;
37379;SDS011;23252;-33.992;18.480;2023-01-16T04:30:46;15.10;;;2.83;;
37379;SDS011;23252;-33.992;18.480;2023-01-16T04:33:13;17.23;;;3.00;;
37379;SDS011;23252;-33.992;18.480;2023-01-16T04:35:42;13.10;;;2.85;;
37379;SDS011;23252;-33.992;18.480;2023-01-16T04:38:08;14.65;;;3.15;;
37379;SDS011;23252;-33.992;18.480;2023-01-16T04:40:35;12.52;;;2.38;;
37379;SDS011;23252;-33.992;18.480;2023-01-16T04:43:01;11.68;;;2.70;;
37379;SDS011;23252;-33.992;18.480;2023-01-16T04:45:30;12.40;;;2.30;;
37379;SDS011;23252;-33.992;18.480;2023-01-16T04:47:57;12.10;;;3.10;;
37379;SDS011;23252;-33.992;18.480;2023-01-16T04:50:23;11.52;;;2.38;;
37379;SDS011;23252;-33.992;18.480;2023-01-16T04:52:52;10.50;;;2.55;;
37379;SDS011;23252;-33.992;18.480;2023-01-16T04:55:19;8.60;;;1.98;;
37379;SDS011;23252;-33.992;18.480;2023-01-16T04:57:51;12.32;;;2.45;;
37379;SDS011;23252;-33.992;18.480;2023-01-16T05:00:18;11.13;;;2.85;;
37379;SDS011;23252;-33.992;18.480;2023-01-16T05:02:45;13.05;;;2.42;;
37379;SDS011;23252;-33.992;18.480;2023-01-16T05:05:11;10.98;;;2.67;;
37379;SDS011;23252;-33.992;18.480;2023-01-16T05:07:38;14.50;;;2.72;;
37379;SDS011;23252;-33.992;18.480;2023-01-16T05:10:09;19.70;;;3.75;;
37379;SDS011;23252;-33.992;18.480;2023-01-16T05:15:05;25.83;;;4.82;;
37379;SDS011;23252;-33.992;18.480;2023-01-16T05:17:32;25.00;;;5.28;;
37379;SDS011;23252;-33.992;18.480;2023-01-16T05:20:01;24.85;;;4.47;;
37379;SDS011;23252;-33.992;18.480;2023-01-16T05:22:27;21.55;;;4.90;;
37379;SDS011;23252;-33.992;18.480;2023-01-16T05:25:09;20.67;;;5.75;;
37379;SDS011;23252;-33.992;18.480;2023-01-16T05:27:36;26.63;;;4.38;;
37379;SDS011;23252;-33.992;18.480;2023-01-16T05:30:05;24.98;;;6.35;;
37379;SDS011;23252;-33.992;18.480;2023-01-16T05:32:39;21.50;;;4.57;;
37379;SDS011;23252;-33.992;18.480;2023-01-16T05:35:09;20.42;;;4.63;;
37379;SDS011;23252;-33.992;18.480;2023-01-16T05:37:35;25.67;;;6.07;;
37379;SDS011;23252;-33.992;18.480;2023-01-16T05:40:02;22.27;;;4.43;;
37379;SDS011;23252;-33.992;18.480;2023-01-16T05:42:29;16.63;;;4.13;;
37379;SDS011;23252;-33.992;18.480;2023-01-16T05:44:55;20.90;;;4.47;;
37379;SDS011;23252;-33.992;18.480;2023-01-16T05:47:22;24.55;;;4.22;;
37379;SDS011;23252;-33.992;18.480;2023-01-16T05:49:49;18.63;;;4.20;;
37379;SDS011;23252;-33.992;18.480;2023-01-16T05:52:16;20.23;;;4.53;;
37379;SDS011;23252;-33.992;18.480;2023-01-16T05:55:05;26.92;;;4.57;;
37379;SDS011;23252;-33.992;18.480;2023-01-16T05:57:37;25.27;;;4.50;;
37379;SDS011;23252;-33.992;18.480;2023-01-16T06:00:04;30.05;;;4.88;;
37379;SDS011;23252;-33.992;18.480;2023-01-16T06:02:34;21.55;;;4.80;;
37379;SDS011;23252;-33.992;18.480;2023-01-16T06:05:01;20.50;;;4.32;;
37379;SDS011;23252;-33.992;18.480;2023-01-16T06:07:28;21.95;;;5.53;;
37379;SDS011;23252;-33.992;18.480;2023-01-16T06:36:44;23.88;;;5.22;;
37379;SDS011;23252;-33.992;18.480;2023-01-16T06:39:13;21.95;;;4.40;;
37379;SDS011;23252;-33.992;18.480;2023-01-16T06:41:40;23.00;;;4.25;;
37379;SDS011;23252;-33.992;18.480;2023-01-16T06:44:07;21.10;;;4.40;;
37379;SDS011;23252;-33.992;18.480;2023-01-16T06:46:34;22.88;;;4.20;;
37379;SDS011;23252;-33.992;18.480;2023-01-16T06:49:01;23.48;;;4.50;;
37379;SDS011;23252;-33.992;18.480;2023-01-16T06:51:27;23.77;;;4.57;;
37379;SDS011;23252;-33.992;18.480;2023-01-16T06:56:21;26.30;;;4.70;;
37379;SDS011;23252;-33.992;18.480;2023-01-16T06:58:47;17.75;;;4.22;;
37379;SDS011;23252;-33.992;18.480;2023-01-16T07:01:14;19.95;;;3.35;;
37379;SDS011;23252;-33.992;18.480;2023-01-16T07:03:40;22.58;;;4.40;;
37379;SDS011;23252;-33.992;18.480;2023-01-16T07:06:07;25.35;;;4.50;;
37379;SDS011;23252;-33.992;18.480;2023-01-16T07:08:33;27.23;;;4.68;;
37379;SDS011;23252;-33.992;18.480;2023-01-16T07:11:00;23.77;;;4.40;;
37379;SDS011;23252;-33.992;18.480;2023-01-16T07:13:27;25.20;;;4.15;;
37379;SDS011;23252;-33.992;18.480;2023-01-16T07:15:54;18.08;;;4.28;;
37379;SDS011;23252;-33.992;18.480;2023-01-16T07:18:40;24.73;;;4.45;;
37379;SDS011;23252;-33.992;18.480;2023-01-16T07:21:25;32.45;;;4.78;;
37379;SDS011;23252;-33.992;18.480;2023-01-16T07:24:13;23.25;;;4.05;;
37379;SDS011;23252;-33.992;18.480;2023-01-16T07:26:47;24.88;;;4.40;;
37379;SDS011;23252;-33.992;18.480;2023-01-16T07:29:18;23.23;;;3.90;;
37379;SDS011;23252;-33.992;18.480;2023-01-16T07:31:44;23.27;;;4.00;;
37379;SDS011;23252;-33.992;18.480;2023-01-16T07:34:11;19.17;;;4.13;;
37379;SDS011;23252;-33.992;18.480;2023-01-16T07:36:38;27.20;;;4.43;;
37379;SDS011;23252;-33.992;18.480;2023-01-16T07:39:04;20.70;;;4.40;;
37379;SDS011;23252;-33.992;18.480;2023-01-16T07:41:31;18.52;;;3.80;;
37379;SDS011;23252;-33.992;18.480;2023-01-16T07:43:57;21.70;;;4.00;;
37379;SDS011;23252;-33.992;18.480;2023-01-16T07:46:24;24.88;;;4.30;;
37379;SDS011;23252;-33.992;18.480;2023-01-16T07:48:51;18.17;;;4.10;;
37379;SDS011;23252;-33.992;18.480;2023-01-16T07:51:18;26.23;;;4.20;;
37379;SDS011;23252;-33.992;18.480;2023-01-16T07:53:45;28.50;;;5.45;;
37379;SDS011;23252;-33.992;18.480;2023-01-16T07:56:11;25.30;;;4.65;;
37379;SDS011;23252;-33.992;18.480;2023-01-16T07:58:38;20.42;;;4.63;;
37379;SDS011;23252;-33.992;18.480;2023-01-16T08:01:06;21.33;;;4.18;;
37379;SDS011;23252;-33.992;18.480;2023-01-16T08:03:33;25.58;;;4.30;;
37379;SDS011;23252;-33.992;18.480;2023-01-16T08:06:00;23.00;;;4.22;;
37379;SDS011;23252;-33.992;18.480;2023-01-16T08:08:27;29.65;;;5.00;;
37379;SDS011;23252;-33.992;18.480;2023-01-16T08:10:56;26.70;;;4.35;;
37379;SDS011;23252;-33.992;18.480;2023-01-16T08:13:24;25.88;;;4.20;;
37379;SDS011;23252;-33.992;18.480;2023-01-16T08:15:51;17.67;;;3.75;;
37379;SDS011;23252;-33.992;18.480;2023-01-16T08:18:18;21.20;;;3.58;;
37379;SDS011;23252;-33.992;18.480;2023-01-16T08:20:45;22.08;;;3.90;;
37379;SDS011;23252;-33.992;18.480;2023-01-16T08:23:13;22.83;;;3.85;;
37379;SDS011;23252;-33.992;18.480;2023-01-16T08:25:39;20.92;;;3.88;;
37379;SDS011;23252;-33.992;18.480;2023-01-16T08:28:06;26.98;;;5.43;;
37379;SDS011;23252;-33.992;18.480;2023-01-16T08:30:32;20.77;;;3.97;;
37379;SDS011;23252;-33.992;18.480;2023-01-16T08:33:00;28.45;;;5.28;;
37379;SDS011;23252;-33.992;18.480;2023-01-16T08:35:27;19.15;;;4.47;;
37379;SDS011;23252;-33.992;18.480;2023-01-16T08:37:54;19.08;;;4.05;;
37379;SDS011;23252;-33.992;18.480;2023-01-16T08:40:20;20.33;;;4.32;;
37379;SDS011;23252;-33.992;18.480;2023-01-16T08:42:47;22.08;;;4.28;;
37379;SDS011;23252;-33.992;18.480;2023-01-16T08:45:32;23.02;;;3.95;;
37379;SDS011;23252;-33.992;18.480;2023-01-16T08:48:19;17.50;;;3.42;;
37379;SDS011;23252;-33.992;18.480;2023-01-16T08:51:10;24.02;;;4.55;;
37379;SDS011;23252;-33.992;18.480;2023-01-16T08:53:53;25.52;;;4.78;;
37379;SDS011;23252;-33.992;18.480;2023-01-16T08:56:22;18.17;;;3.58;;
37379;SDS011;23252;-33.992;18.480;2023-01-16T08:58:52;19.52;;;4.95;;
37379;SDS011;23252;-33.992;18.480;2023-01-16T09:01:22;24.55;;;4.13;;
37379;SDS011;23252;-33.992;18.480;2023-01-16T09:03:49;21.55;;;4.13;;
37379;SDS011;23252;-33.992;18.480;2023-01-16T09:06:16;23.38;;;4.18;;
37379;SDS011;23252;-33.992;18.480;2023-01-16T09:08:42;21.42;;;4.25;;
37379;SDS011;23252;-33.992;18.480;2023-01-16T09:11:09;27.30;;;4.18;;
37379;SDS011;23252;-33.992;18.480;2023-01-16T09:13:54;19.85;;;4.40;;
37379;SDS011;23252;-33.992;18.480;2023-01-16T09:16:25;19.58;;;4.05;;
37379;SDS011;23252;-33.992;18.480;2023-01-16T09:18:52;15.55;;;3.80;;
37379;SDS011;23252;-33.992;18.480;2023-01-16T09:21:19;50.45;;;6.35;;
37379;SDS011;23252;-33.992;18.480;2023-01-16T09:23:49;29.70;;;6.05;;
37379;SDS011;23252;-33.992;18.480;2023-01-16T09:26:16;20.38;;;3.95;;
37379;SDS011;23252;-33.992;18.480;2023-01-16T09:28:43;21.90;;;5.47;;
37379;SDS011;23252;-33.992;18.480;2023-01-16T09:31:10;32.35;;;8.20;;
37379;SDS011;23252;-33.992;18.480;2023-01-16T09:33:36;20.98;;;6.68;;
37379;SDS011;23252;-33.992;18.480;2023-01-16T09:36:03;24.08;;;6.63;;
37379;SDS011;23252;-33.992;18.480;2023-01-16T09:38:30;25.98;;;8.23;;
37379;SDS011;23252;-33.992;18.480;2023-01-16T09:40:57;39.28;;;14.27;;
37379;SDS011;23252;-33.992;18.480;2023-01-16T09:43:27;22.77;;;7.13;;
37379;SDS011;23252;-33.992;18.480;2023-01-16T09:46:15;18.60;;;4.95;;
37379;SDS011;23252;-33.992;18.480;2023-01-16T09:54:28;21.13;;;4.32;;
37379;SDS011;23252;-33.992;18.480;2023-01-16T09:59:16;24.13;;;4.93;;
37379;SDS011;23252;-33.992;18.480;2023-01-16T10:01:55;20.40;;;3.97;;
37379;SDS011;23252;-33.992;18.480;2023-01-16T10:04:33;22.83;;;4.60;;
37379;SDS011;23252;-33.992;18.480;2023-01-16T10:12:43;21.52;;;4.03;;
37379;SDS011;23252;-33.992;18.480;2023-01-16T10:23:43;24.88;;;4.70;;
37379;SDS011;23252;-33.992;18.480;2023-01-16T10:29:36;27.25;;;4.45;;
37379;SDS011;23252;-33.992;18.480;2023-01-16T10:32:36;32.75;;;4.97;;
37379;SDS011;23252;-33.992;18.480;2023-01-16T10:35:31;23.92;;;4.78;;
37379;SDS011;23252;-33.992;18.480;2023-01-16T10:41:04;20.27;;;4.47;;
37379;SDS011;23252;-33.992;18.480;2023-01-16T10:44:03;33.63;;;6.40;;
37379;SDS011;23252;-33.992;18.480;2023-01-16T10:49:55;26.05;;;4.93;;
37379;SDS011;23252;-33.992;18.480;2023-01-16T10:52:22;26.17;;;5.18;;
37379;SDS011;23252;-33.992;18.480;2023-01-16T10:54:53;23.73;;;4.90;;
37379;SDS011;23252;-33.992;18.480;2023-01-16T10:57:23;25.70;;;5.18;;
37379;SDS011;23252;-33.992;18.480;2023-01-16T10:59:50;22.55;;;4.60;;
37379;SDS011;23252;-33.992;18.480;2023-01-16T11:02:29;28.30;;;5.57;;
37379;SDS011;23252;-33.992;18.480;2023-01-16T11:05:00;29.02;;;5.32;;
37379;SDS011;23252;-33.992;18.480;2023-01-16T11:07:27;25.48;;;4.93;;
37379;SDS011;23252;-33.992;18.480;2023-01-16T11:09:55;26.25;;;5.32;;
37379;SDS011;23252;-33.992;18.480;2023-01-16T11:12:29;24.58;;;5.38;;
37379;SDS011;23252;-33.992;18.480;2023-01-16T11:15:20;27.48;;;4.95;;
37379;SDS011;23252;-33.992;18.480;2023-01-16T11:18:20;28.50;;;5.72;;
37379;SDS011;23252;-33.992;18.480;2023-01-16T11:20:57;29.05;;;5.05;;
37379;SDS011;23252;-33.992;18.480;2023-01-16T11:23:27;23.83;;;5.05;;
37379;SDS011;23252;-33.992;18.480;2023-01-16T11:26:01;26.10;;;5.07;;
37379;SDS011;23252;-33.992;18.480;2023-01-16T11:28:30;29.13;;;5.07;;
37379;SDS011;23252;-33.992;18.480;2023-01-16T11:30:59;26.30;;;4.55;;
37379;SDS011;23252;-33.992;18.480;2023-01-16T11:33:36;29.20;;;4.88;;
37379;SDS011;23252;-33.992;18.480;2023-01-16T11:36:07;25.63;;;5.00;;
37379;SDS011;23252;-33.992;18.480;2023-01-16T11:41:03;26.02;;;4.65;;
37379;SDS011;23252;-33.992;18.480;2023-01-16T11:43:33;29.40;;;5.57;;
37379;SDS011;23252;-33.992;18.480;2023-01-16T11:46:28;23.38;;;4.32;;
37379;SDS011;23252;-33.992;18.480;2023-01-16T11:49:00;25.42;;;4.07;;
37379;SDS011;23252;-33.992;18.480;2023-01-16T11:51:30;24.52;;;4.38;;
37379;SDS011;23252;-33.992;18.480;2023-01-16T11:53:59;23.70;;;4.72;;
37379;SDS011;23252;-33.992;18.480;2023-01-16T12:02:23;29.27;;;5.15;;
37379;SDS011;23252;-33.992;18.480;2023-01-16T12:08:18;22.73;;;4.25;;
37379;SDS011;23252;-33.992;18.480;2023-01-16T12:10:58;26.55;;;4.60;;
37379;SDS011;23252;-33.992;18.480;2023-01-16T12:13:49;23.80;;;3.97;;
37379;SDS011;23252;-33.992;18.480;2023-01-16T12:21:49;29.13;;;5.05;;
37379;SDS011;23252;-33.992;18.480;2023-01-16T12:27:09;25.10;;;5.00;;
37379;SDS011;23252;-33.992;18.480;2023-01-16T12:36:36;21.00;;;4.28;;
37379;SDS011;23252;-33.992;18.480;2023-01-16T12:42:21;24.85;;;4.18;;
37379;SDS011;23252;-33.992;18.480;2023-01-16T12:48:42;23.83;;;4.43;;
37379;SDS011;23252;-33.992;18.480;2023-01-16T12:51:33;26.52;;;4.25;;
37379;SDS011;23252;-33.992;18.480;2023-01-16T12:59:25;29.48;;;4.32;;
37379;SDS011;23252;-33.992;18.480;2023-01-16T13:04:51;28.58;;;4.35;;
37379;SDS011;23252;-33.992;18.480;2023-01-16T13:10:27;30.95;;;4.65;;
37379;SDS011;23252;-33.992;18.480;2023-01-16T13:13:16;26.35;;;4.47;;
37379;SDS011;23252;-33.992;18.480;2023-01-16T13:15:54;27.23;;;4.90;;
37379;SDS011;23252;-33.992;18.480;2023-01-16T13:20:55;27.38;;;5.38;;
37379;SDS011;23252;-33.992;18.480;2023-01-16T13:23:30;29.67;;;4.47;;
37379;SDS011;23252;-33.992;18.480;2023-01-16T13:26:02;22.23;;;4.07;;
37379;SDS011;23252;-33.992;18.480;2023-01-16T13:28:39;25.70;;;4.25;;
37379;SDS011;23252;-33.992;18.480;2023-01-16T13:31:18;23.17;;;4.90;;
37379;SDS011;23252;-33.992;18.480;2023-01-16T13:33:46;29.17;;;4.72;;
37379;SDS011;23252;-33.992;18.480;2023-01-16T13:38:53;23.15;;;4.25;;
37379;SDS011;23252;-33.992;18.480;2023-01-16T13:41:45;26.00;;;4.90;;
37379;SDS011;23252;-33.992;18.480;2023-01-16T17:48:32;31.20;;;5.65;;
37379;SDS011;23252;-33.992;18.480;2023-01-16T17:50:59;33.60;;;6.20;;
37379;SDS011;23252;-33.992;18.480;2023-01-16T17:53:27;45.03;;;6.05;;
37379;SDS011;23252;-33.992;18.480;2023-01-16T17:55:56;41.45;;;7.13;;
37379;SDS011;23252;-33.992;18.480;2023-01-16T17:58:44;32.30;;;7.15;;
37379;SDS011;23252;-33.992;18.480;2023-01-16T18:01:13;30.17;;;5.88;;
37379;SDS011;23252;-33.992;18.480;2023-01-16T18:03:48;37.47;;;5.95;;
37379;SDS011;23252;-33.992;18.480;2023-01-16T18:06:20;32.58;;;6.38;;
37379;SDS011;23252;-33.992;18.480;2023-01-16T18:08:47;36.65;;;6.95;;
37379;SDS011;23252;-33.992;18.480;2023-01-16T18:11:17;32.28;;;6.10;;
37379;SDS011;23252;-33.992;18.480;2023-01-16T18:14:03;34.20;;;6.88;;
37379;SDS011;23252;-33.992;18.480;2023-01-16T18:16:48;34.20;;;5.90;;
37379;SDS011;23252;-33.992;18.480;2023-01-16T18:19:33;43.15;;;7.22;;
37379;SDS011;23252;-33.992;18.480;2023-01-16T18:22:00;31.27;;;5.70;;
37379;SDS011;23252;-33.992;18.480;2023-01-16T18:24:27;30.08;;;5.68;;
37379;SDS011;23252;-33.992;18.480;2023-01-16T18:26:56;32.13;;;5.57;;
37379;SDS011;23252;-33.992;18.480;2023-01-16T18:29:24;36.90;;;5.72;;
37379;SDS011;23252;-33.992;18.480;2023-01-16T18:31:51;35.08;;;6.45;;
37379;SDS011;23252;-33.992;18.480;2023-01-16T18:34:35;40.00;;;6.93;;
37379;SDS011;23252;-33.992;18.480;2023-01-16T18:37:02;34.85;;;5.97;;
37379;SDS011;23252;-33.992;18.480;2023-01-16T18:42:14;41.08;;;7.50;;
37379;SDS011;23252;-33.992;18.480;2023-01-16T18:44:59;35.45;;;6.25;;
37379;SDS011;23252;-33.992;18.480;2023-01-16T18:47:43;28.63;;;5.75;;
37379;SDS011;23252;-33.992;18.480;2023-01-16T18:50:28;43.22;;;6.15;;
37379;SDS011;23252;-33.992;18.480;2023-01-16T18:53:22;28.30;;;6.22;;
37379;SDS011;23252;-33.992;18.480;2023-01-16T18:56:13;38.78;;;6.40;;
37379;SDS011;23252;-33.992;18.480;2023-01-16T18:59:01;31.48;;;5.85;;
37379;SDS011;23252;-33.992;18.480;2023-01-16T19:01:46;21.60;;;4.90;;
37379;SDS011;23252;-33.992;18.480;2023-01-16T19:07:36;28.55;;;5.68;;
37379;SDS011;23252;-33.992;18.480;2023-01-16T19:10:15;32.78;;;5.45;;
37379;SDS011;23252;-33.992;18.480;2023-01-16T19:13:04;39.10;;;6.38;;
37379;SDS011;23252;-33.992;18.480;2023-01-16T19:15:31;30.70;;;6.45;;
37379;SDS011;23252;-33.992;18.480;2023-01-16T19:18:24;29.13;;;5.40;;
37379;SDS011;23252;-33.992;18.480;2023-01-16T19:20:51;38.25;;;6.38;;
37379;SDS011;23252;-33.992;18.480;2023-01-16T19:26:08;32.90;;;5.47;;
37379;SDS011;23252;-33.992;18.480;2023-01-16T19:28:35;30.88;;;6.88;;
37379;SDS011;23252;-33.992;18.480;2023-01-16T19:31:03;33.88;;;5.28;;
37379;SDS011;23252;-33.992;18.480;2023-01-16T19:33:37;35.65;;;6.07;;
37379;SDS011;23252;-33.992;18.480;2023-01-16T19:36:10;26.55;;;5.25;;
37379;SDS011;23252;-33.992;18.480;2023-01-16T19:38:37;31.40;;;5.93;;
37379;SDS011;23252;-33.992;18.480;2023-01-16T19:41:10;32.47;;;6.32;;
37379;SDS011;23252;-33.992;18.480;2023-01-16T19:43:55;34.90;;;6.25;;
37379;SDS011;23252;-33.992;18.480;2023-01-16T19:46:40;24.85;;;5.20;;
37379;SDS011;23252;-33.992;18.480;2023-01-16T19:49:06;35.55;;;6.50;;
37379;SDS011;23252;-33.992;18.480;2023-01-16T19:51:33;25.77;;;5.30;;
37379;SDS011;23252;-33.992;18.480;2023-01-16T19:53:59;33.28;;;6.25;;
37379;SDS011;23252;-33.992;18.480;2023-01-16T19:56:30;25.63;;;5.40;;
37379;SDS011;23252;-33.992;18.480;2023-01-16T19:59:01;33.08;;;6.00;;
37379;SDS011;23252;-33.992;18.480;2023-01-16T20:01:30;29.25;;;5.20;;
37379;SDS011;23252;-33.992;18.480;2023-01-16T20:04:00;28.65;;;5.75;;
37379;SDS011;23252;-33.992;18.480;2023-01-16T20:06:28;23.05;;;4.65;;
37379;SDS011;23252;-33.992;18.480;2023-01-16T20:08:55;32.10;;;5.25;;
37379;SDS011;23252;-33.992;18.480;2023-01-16T20:11:22;23.98;;;5.05;;
37379;SDS011;23252;-33.992;18.480;2023-01-16T20:14:08;29.90;;;4.63;;
37379;SDS011;23252;-33.992;18.480;2023-01-16T20:16:35;27.75;;;5.05;;
37379;SDS011;23252;-33.992;18.480;2023-01-16T20:19:01;29.33;;;5.68;;
37379;SDS011;23252;-33.992;18.480;2023-01-16T20:21:28;24.75;;;4.50;;
37379;SDS011;23252;-33.992;18.480;2023-01-16T20:23:55;24.40;;;4.53;;
37379;SDS011;23252;-33.992;18.480;2023-01-16T20:26:21;28.30;;;4.85;;
37379;SDS011;23252;-33.992;18.480;2023-01-16T20:28:49;22.45;;;5.25;;
37379;SDS011;23252;-33.992;18.480;2023-01-16T20:31:16;25.92;;;4.60;;
37379;SDS011;23252;-33.992;18.480;2023-01-16T20:33:43;22.83;;;4.43;;
37379;SDS011;23252;-33.992;18.480;2023-01-16T20:36:10;24.20;;;4.25;;
37379;SDS011;23252;-33.992;18.480;2023-01-16T20:38:36;28.42;;;5.05;;
37379;SDS011;23252;-33.992;18.480;2023-01-16T20:41:11;27.90;;;4.50;;
37379;SDS011;23252;-33.992;18.480;2023-01-16T20:43:59;25.52;;;4.53;;
37379;SDS011;23252;-33.992;18.480;2023-01-16T20:46:43;25.17;;;4.65;;
37379;SDS011;23252;-33.992;18.480;2023-01-16T20:49:10;23.35;;;4.57;;
37379;SDS011;23252;-33.992;18.480;2023-01-16T20:51:36;29.00;;;5.75;;
37379;SDS011;23252;-33.992;18.480;2023-01-16T20:54:03;30.95;;;5.93;;
37379;SDS011;23252;-33.992;18.480;2023-01-16T20:56:32;32.67;;;5.80;;
37379;SDS011;23252;-33.992;18.480;2023-01-16T20:58:59;20.40;;;4.28;;
37379;SDS011;23252;-33.992;18.480;2023-01-16T21:01:25;22.73;;;4.85;;
37379;SDS011;23252;-33.992;18.480;2023-01-16T21:03:53;25.98;;;4.57;;
37379;SDS011;23252;-33.992;18.480;2023-01-16T21:06:19;28.63;;;5.10;;
37379;SDS011;23252;-33.992;18.480;2023-01-16T21:08:46;23.05;;;4.05;;
37379;SDS011;23252;-33.992;18.480;2023-01-16T21:11:12;25.42;;;4.65;;
37379;SDS011;23252;-33.992;18.480;2023-01-16T21:13:57;24.20;;;4.47;;
37379;SDS011;23252;-33.992;18.480;2023-01-16T21:16:36;21.48;;;4.47;;
37379;SDS011;23252;-33.992;18.480;2023-01-16T21:19:24;29.08;;;4.82;;
37379;SDS011;23252;-33.992;18.480;2023-01-16T21:22:09;23.83;;;3.88;;
37379;SDS011;23252;-33.992;18.480;2023-01-16T21:24:38;23.38;;;4.68;;
37379;SDS011;23252;-33.992;18.480;2023-01-16T21:27:06;23.85;;;5.30;;
37379;SDS011;23252;-33.992;18.480;2023-01-16T21:29:34;22.73;;;4.93;;
37379;SDS011;23252;-33.992;18.480;2023-01-16T21:32:01;24.50;;;4.93;;
37379;SDS011;23252;-33.992;18.480;2023-01-16T21:34:33;22.27;;;4.63;;
37379;SDS011;23252;-33.992;18.480;2023-01-16T21:37:00;24.40;;;4.88;;
37379;SDS011;23252;-33.992;18.480;2023-01-16T21:39:27;29.70;;;5.07;;
37379;SDS011;23252;-33.992;18.480;2023-01-16T21:41:54;24.65;;;4.55;;